sensor_id;sensor_type;location;lat;lon;timestamp;temperature;humidity
53454;DHT22;49404;50.472;6.954;2022-09-13T00:01:46;20.00;67.30
53454;DHT22;49404;50.472;6.954;2022-09-13T00:04:11;20.00;67.50
53454;DHT22;49404;50.472;6.954;2022-09-13T00:06:37;19.90;68.00
53454;DHT22;49404;50.472;6.954;2022-09-13T00:09:02;19.90;67.80
53454;DHT22;49404;50.472;6.954;2022-09-13T00:11:30;19.90;68.20
53454;DHT22;49404;50.472;6.954;2022-09-13T00:13:58;19.80;67.90
53454;DHT22;49404;50.472;6.954;2022-09-13T00:16:25;19.80;67.90
53454;DHT22;49404;50.472;6.954;2022-09-13T00:18:53;19.80;68.60
53454;DHT22;49404;50.472;6.954;2022-09-13T00:21:20;19.80;68.20
53454;DHT22;49404;50.472;6.954;2022-09-13T00:23:47;19.80;68.20
53454;DHT22;49404;50.472;6.954;2022-09-13T00:26:16;19.80;68.80
53454;DHT22;49404;50.472;6.954;2022-09-13T00:28:42;19.80;68.30
53454;DHT22;49404;50.472;6.954;2022-09-13T00:31:09;19.80;68.80
53454;DHT22;49404;50.472;6.954;2022-09-13T00:33:35;19.70;68.60
53454;DHT22;49404;50.472;6.954;2022-09-13T00:36:07;19.70;68.80
53454;DHT22;49404;50.472;6.954;2022-09-13T00:38:40;19.60;69.20
53454;DHT22;49404;50.472;6.954;2022-09-13T00:41:07;19.60;69.30
53454;DHT22;49404;50.472;6.954;2022-09-13T00:46:05;19.50;69.60
53454;DHT22;49404;50.472;6.954;2022-09-13T00:48:30;19.50;69.50
53454;DHT22;49404;50.472;6.954;2022-09-13T00:51:00;19.50;69.90
53454;DHT22;49404;50.472;6.954;2022-09-13T00:53:33;19.50;69.40
53454;DHT22;49404;50.472;6.954;2022-09-13T00:56:02;19.50;69.60
53454;DHT22;49404;50.472;6.954;2022-09-13T00:58:35;19.50;70.10
53454;DHT22;49404;50.472;6.954;2022-09-13T01:01:03;19.40;69.40
53454;DHT22;49404;50.472;6.954;2022-09-13T01:03:30;19.50;69.40
53454;DHT22;49404;50.472;6.954;2022-09-13T01:05:59;19.50;69.80
53454;DHT22;49404;50.472;6.954;2022-09-13T01:08:26;19.40;69.70
53454;DHT22;49404;50.472;6.954;2022-09-13T01:10:55;19.40;70.00
53454;DHT22;49404;50.472;6.954;2022-09-13T01:13:23;19.40;69.80
53454;DHT22;49404;50.472;6.954;2022-09-13T01:15:50;19.40;69.60
53454;DHT22;49404;50.472;6.954;2022-09-13T01:18:16;19.30;70.40
53454;DHT22;49404;50.472;6.954;2022-09-13T01:26:20;19.30;70.50
53454;DHT22;49404;50.472;6.954;2022-09-13T01:28:56;19.30;70.20
53454;DHT22;49404;50.472;6.954;2022-09-13T01:41:32;19.10;71.20
53454;DHT22;49404;50.472;6.954;2022-09-13T01:52:04;19.10;71.00
53454;DHT22;49404;50.472;6.954;2022-09-13T01:54:37;19.10;70.90
53454;DHT22;49404;50.472;6.954;2022-09-13T01:57:11;19.10;71.40
53454;DHT22;49404;50.472;6.954;2022-09-13T02:04:54;19.10;71.50
53454;DHT22;49404;50.472;6.954;2022-09-13T02:07:26;19.10;71.70
53454;DHT22;49404;50.472;6.954;2022-09-13T02:09:56;19.00;71.30
53454;DHT22;49404;50.472;6.954;2022-09-13T02:12:24;19.00;71.20
53454;DHT22;49404;50.472;6.954;2022-09-13T02:14:56;19.00;71.20
53454;DHT22;49404;50.472;6.954;2022-09-13T02:17:25;19.00;71.70
53454;DHT22;49404;50.472;6.954;2022-09-13T02:19:56;19.00;71.30
53454;DHT22;49404;50.472;6.954;2022-09-13T02:22:24;19.00;71.10
53454;DHT22;49404;50.472;6.954;2022-09-13T02:24:55;19.00;71.50
53454;DHT22;49404;50.472;6.954;2022-09-13T02:29:51;19.00;71.00
53454;DHT22;49404;50.472;6.954;2022-09-13T02:32:21;19.00;71.00
53454;DHT22;49404;50.472;6.954;2022-09-13T02:34:57;19.00;70.80
53454;DHT22;49404;50.472;6.954;2022-09-13T02:37:26;19.00;71.30
53454;DHT22;49404;50.472;6.954;2022-09-13T02:39:58;23.40;73.60
53454;DHT22;49404;50.472;6.954;2022-09-13T02:42:59;19.00;70.50
53454;DHT22;49404;50.472;6.954;2022-09-13T02:45:16;19.00;71.00
53454;DHT22;49404;50.472;6.954;2022-09-13T02:50:35;19.00;71.00
53454;DHT22;49404;50.472;6.954;2022-09-13T02:58:40;19.00;71.00
53454;DHT22;49404;50.472;6.954;2022-09-13T03:00:59;19.00;71.10
53454;DHT22;49404;50.472;6.954;2022-09-13T03:03:25;19.00;70.60
53454;DHT22;49404;50.472;6.954;2022-09-13T03:05:51;19.00;70.60
53454;DHT22;49404;50.472;6.954;2022-09-13T03:08:17;19.00;70.60
53454;DHT22;49404;50.472;6.954;2022-09-13T03:16:18;19.00;70.90
53454;DHT22;49404;50.472;6.954;2022-09-13T03:24:15;19.10;70.20
53454;DHT22;49404;50.472;6.954;2022-09-13T03:27:17;19.10;70.20
53454;DHT22;49404;50.472;6.954;2022-09-13T03:37:47;19.10;71.10
53454;DHT22;49404;50.472;6.954;2022-09-13T03:40:17;19.10;71.10
53454;DHT22;49404;50.472;6.954;2022-09-13T03:42:47;19.10;71.60
53454;DHT22;49404;50.472;6.954;2022-09-13T03:45:15;19.10;72.20
53454;DHT22;49404;50.472;6.954;2022-09-13T03:47:42;19.10;72.40
53454;DHT22;49404;50.472;6.954;2022-09-13T03:50:09;19.00;72.40
53454;DHT22;49404;50.472;6.954;2022-09-13T03:52:41;19.00;72.40
53454;DHT22;49404;50.472;6.954;2022-09-13T03:55:10;19.00;73.00
53454;DHT22;49404;50.472;6.954;2022-09-13T03:57:38;18.90;72.90
53454;DHT22;49404;50.472;6.954;2022-09-13T04:00:04;19.00;73.10
53454;DHT22;49404;50.472;6.954;2022-09-13T04:02:30;18.90;73.20
53454;DHT22;49404;50.472;6.954;2022-09-13T04:04:55;18.90;73.60
53454;DHT22;49404;50.472;6.954;2022-09-13T04:07:23;18.90;73.90
53454;DHT22;49404;50.472;6.954;2022-09-13T04:09:49;18.90;73.20
53454;DHT22;49404;50.472;6.954;2022-09-13T04:12:15;18.90;73.30
53454;DHT22;49404;50.472;6.954;2022-09-13T04:14:41;18.90;73.20
53454;DHT22;49404;50.472;6.954;2022-09-13T04:17:10;18.90;73.90
53454;DHT22;49404;50.472;6.954;2022-09-13T04:19:35;18.90;73.80
53454;DHT22;49404;50.472;6.954;2022-09-13T04:22:01;19.00;73.60
53454;DHT22;49404;50.472;6.954;2022-09-13T04:24:27;18.90;74.00
53454;DHT22;49404;50.472;6.954;2022-09-13T04:26:53;19.00;73.90
53454;DHT22;49404;50.472;6.954;2022-09-13T04:29:19;19.00;73.50
53454;DHT22;49404;50.472;6.954;2022-09-13T04:31:45;19.00;74.00
53454;DHT22;49404;50.472;6.954;2022-09-13T04:34:13;19.00;73.50
53454;DHT22;49404;50.472;6.954;2022-09-13T04:36:39;19.00;73.40
53454;DHT22;49404;50.472;6.954;2022-09-13T04:39:04;19.00;74.60
53454;DHT22;49404;50.472;6.954;2022-09-13T04:41:30;19.00;73.40
53454;DHT22;49404;50.472;6.954;2022-09-13T04:43:59;19.00;73.30
53454;DHT22;49404;50.472;6.954;2022-09-13T04:46:24;19.00;73.70
53454;DHT22;49404;50.472;6.954;2022-09-13T04:48:50;19.00;72.80
53454;DHT22;49404;50.472;6.954;2022-09-13T04:51:18;19.00;73.30
53454;DHT22;49404;50.472;6.954;2022-09-13T04:53:44;19.00;72.70
53454;DHT22;49404;50.472;6.954;2022-09-13T04:56:10;19.00;72.70
53454;DHT22;49404;50.472;6.954;2022-09-13T04:58:36;19.00;73.10
53454;DHT22;49404;50.472;6.954;2022-09-13T05:01:08;19.00;72.90
53454;DHT22;49404;50.472;6.954;2022-09-13T05:03:36;19.10;72.50
53454;DHT22;49404;50.472;6.954;2022-09-13T05:06:03;19.00;72.40
53454;DHT22;49404;50.472;6.954;2022-09-13T05:08:28;19.10;72.70
53454;DHT22;49404;50.472;6.954;2022-09-13T05:10:56;19.00;73.10
53454;DHT22;49404;50.472;6.954;2022-09-13T05:13:22;19.00;73.10
53454;DHT22;49404;50.472;6.954;2022-09-13T05:15:51;19.00;73.30
53454;DHT22;49404;50.472;6.954;2022-09-13T05:18:18;19.00;73.70
53454;DHT22;49404;50.472;6.954;2022-09-13T05:20:44;19.00;73.90
53454;DHT22;49404;50.472;6.954;2022-09-13T05:23:09;18.90;73.50
53454;DHT22;49404;50.472;6.954;2022-09-13T05:25:35;18.90;73.50
53454;DHT22;49404;50.472;6.954;2022-09-13T05:28:02;18.90;74.00
53454;DHT22;49404;50.472;6.954;2022-09-13T05:30:28;18.90;73.10
53454;DHT22;49404;50.472;6.954;2022-09-13T05:32:55;18.90;72.90
53454;DHT22;49404;50.472;6.954;2022-09-13T05:35:22;18.80;72.80
53454;DHT22;49404;50.472;6.954;2022-09-13T05:37:48;18.80;72.80
53454;DHT22;49404;50.472;6.954;2022-09-13T05:40:14;18.80;73.90
53454;DHT22;49404;50.472;6.954;2022-09-13T05:42:39;18.80;72.80
53454;DHT22;49404;50.472;6.954;2022-09-13T05:45:05;18.80;73.20
53454;DHT22;49404;50.472;6.954;2022-09-13T05:47:30;18.80;73.20
53454;DHT22;49404;50.472;6.954;2022-09-13T05:49:58;18.80;72.60
53454;DHT22;49404;50.472;6.954;2022-09-13T05:52:26;18.80;72.70
53454;DHT22;49404;50.472;6.954;2022-09-13T05:54:51;18.70;72.60
53454;DHT22;49404;50.472;6.954;2022-09-13T05:57:17;18.70;72.70
53454;DHT22;49404;50.472;6.954;2022-09-13T05:59:42;18.70;73.20
53454;DHT22;49404;50.472;6.954;2022-09-13T06:02:12;18.70;72.90
53454;DHT22;49404;50.472;6.954;2022-09-13T06:04:37;18.60;73.30
53454;DHT22;49404;50.472;6.954;2022-09-13T06:07:05;18.60;73.20
53454;DHT22;49404;50.472;6.954;2022-09-13T06:09:30;18.70;72.60
53454;DHT22;49404;50.472;6.954;2022-09-13T06:11:58;18.70;72.50
53454;DHT22;49404;50.472;6.954;2022-09-13T06:14:24;18.70;73.00
53454;DHT22;49404;50.472;6.954;2022-09-13T06:16:52;18.70;72.50
53454;DHT22;49404;50.472;6.954;2022-09-13T06:19:17;17.30;71.40
53454;DHT22;49404;50.472;6.954;2022-09-13T06:21:43;18.70;72.10
53454;DHT22;49404;50.472;6.954;2022-09-13T06:24:08;18.70;72.00
53454;DHT22;49404;50.472;6.954;2022-09-13T06:26:37;18.70;72.40
53454;DHT22;49404;50.472;6.954;2022-09-13T06:29:02;18.70;72.20
53454;DHT22;49404;50.472;6.954;2022-09-13T06:31:28;18.30;71.70
53454;DHT22;49404;50.472;6.954;2022-09-13T06:33:57;18.80;71.30
53454;DHT22;49404;50.472;6.954;2022-09-13T06:36:23;18.90;71.50
53454;DHT22;49404;50.472;6.954;2022-09-13T06:38:48;18.90;71.40
53454;DHT22;49404;50.472;6.954;2022-09-13T06:41:17;19.00;71.10
53454;DHT22;49404;50.472;6.954;2022-09-13T06:43:51;19.10;70.30
53454;DHT22;49404;50.472;6.954;2022-09-13T06:46:21;19.10;70.80
53454;DHT22;49404;50.472;6.954;2022-09-13T06:48:47;19.20;70.10
53454;DHT22;49404;50.472;6.954;2022-09-13T06:51:18;19.20;70.50
53454;DHT22;49404;50.472;6.954;2022-09-13T06:53:44;19.20;69.80
53454;DHT22;49404;50.472;6.954;2022-09-13T06:56:11;19.30;69.60
53454;DHT22;49404;50.472;6.954;2022-09-13T06:58:37;19.40;69.80
53454;DHT22;49404;50.472;6.954;2022-09-13T07:01:13;19.50;69.40
53454;DHT22;49404;50.472;6.954;2022-09-13T07:03:49;19.60;68.80
53454;DHT22;49404;50.472;6.954;2022-09-13T07:06:16;19.60;68.90
53454;DHT22;49404;50.472;6.954;2022-09-13T07:08:42;19.60;68.20
53454;DHT22;49404;50.472;6.954;2022-09-13T07:11:09;19.70;68.50
53454;DHT22;49404;50.472;6.954;2022-09-13T07:13:34;19.70;68.10
53454;DHT22;49404;50.472;6.954;2022-09-13T07:16:03;19.70;68.50
53454;DHT22;49404;50.472;6.954;2022-09-13T07:18:28;19.70;68.40
53454;DHT22;49404;50.472;6.954;2022-09-13T07:20:57;19.70;67.50
53454;DHT22;49404;50.472;6.954;2022-09-13T07:23:24;19.80;67.50
53454;DHT22;49404;50.472;6.954;2022-09-13T07:25:53;19.80;67.90
53454;DHT22;49404;50.472;6.954;2022-09-13T07:28:19;19.80;68.00
53454;DHT22;49404;50.472;6.954;2022-09-13T07:30:44;19.80;67.90
53454;DHT22;49404;50.472;6.954;2022-09-13T07:33:10;19.80;67.40
53454;DHT22;49404;50.472;6.954;2022-09-13T07:35:37;19.70;67.50
53454;DHT22;49404;50.472;6.954;2022-09-13T07:38:02;19.80;68.10
53454;DHT22;49404;50.472;6.954;2022-09-13T07:40:28;19.80;67.60
53454;DHT22;49404;50.472;6.954;2022-09-13T07:42:53;19.90;67.50
53454;DHT22;49404;50.472;6.954;2022-09-13T07:45:19;20.00;67.50
53454;DHT22;49404;50.472;6.954;2022-09-13T07:47:45;20.10;67.50
53454;DHT22;49404;50.472;6.954;2022-09-13T07:50:11;20.10;67.90
53454;DHT22;49404;50.472;6.954;2022-09-13T07:52:36;20.40;66.30
53454;DHT22;49404;50.472;6.954;2022-09-13T07:55:02;20.40;66.70
53454;DHT22;49404;50.472;6.954;2022-09-13T07:57:28;20.60;65.80
53454;DHT22;49404;50.472;6.954;2022-09-13T07:59:55;20.60;66.30
53454;DHT22;49404;50.472;6.954;2022-09-13T08:02:21;20.80;65.50
53454;DHT22;49404;50.472;6.954;2022-09-13T08:04:46;20.80;65.70
53454;DHT22;49404;50.472;6.954;2022-09-13T08:07:12;21.00;65.70
53454;DHT22;49404;50.472;6.954;2022-09-13T08:09:38;21.20;65.50
53454;DHT22;49404;50.472;6.954;2022-09-13T08:12:04;21.60;63.20
53454;DHT22;49404;50.472;6.954;2022-09-13T08:14:29;21.60;63.70
53454;DHT22;49404;50.472;6.954;2022-09-13T08:16:57;21.80;62.80
53454;DHT22;49404;50.472;6.954;2022-09-13T08:19:25;21.90;62.50
53454;DHT22;49404;50.472;6.954;2022-09-13T08:21:50;22.20;62.10
53454;DHT22;49404;50.472;6.954;2022-09-13T08:24:17;22.20;61.70
53454;DHT22;49404;50.472;6.954;2022-09-13T08:26:43;22.40;62.60
53454;DHT22;49404;50.472;6.954;2022-09-13T08:29:09;22.60;61.20
53454;DHT22;49404;50.472;6.954;2022-09-13T08:31:35;22.60;61.90
53454;DHT22;49404;50.472;6.954;2022-09-13T08:34:00;22.70;61.30
53454;DHT22;49404;50.472;6.954;2022-09-13T08:36:26;22.90;60.40
53454;DHT22;49404;50.472;6.954;2022-09-13T08:38:53;23.00;60.00
53454;DHT22;49404;50.472;6.954;2022-09-13T08:48:55;23.30;60.40
53454;DHT22;49404;50.472;6.954;2022-09-13T08:53:57;23.70;58.80
53454;DHT22;49404;50.472;6.954;2022-09-13T08:56:28;23.70;58.50
53454;DHT22;49404;50.472;6.954;2022-09-13T09:01:52;23.90;58.10
53454;DHT22;49404;50.472;6.954;2022-09-13T09:06:59;24.30;57.20
53454;DHT22;49404;50.472;6.954;2022-09-13T09:09:26;24.40;57.30
53454;DHT22;49404;50.472;6.954;2022-09-13T09:11:57;24.80;55.30
53454;DHT22;49404;50.472;6.954;2022-09-13T09:14:26;24.90;55.00
53454;DHT22;49404;50.472;6.954;2022-09-13T09:17:05;25.00;55.00
53454;DHT22;49404;50.472;6.954;2022-09-13T09:19:35;25.50;54.20
53454;DHT22;49404;50.472;6.954;2022-09-13T09:22:10;25.70;53.10
53454;DHT22;49404;50.472;6.954;2022-09-13T09:24:37;25.60;53.10
53454;DHT22;49404;50.472;6.954;2022-09-13T09:27:10;25.80;52.70
53454;DHT22;49404;50.472;6.954;2022-09-13T09:29:38;25.80;53.60
53454;DHT22;49404;50.472;6.954;2022-09-13T09:34:41;26.10;51.90
53454;DHT22;49404;50.472;6.954;2022-09-13T09:39:33;26.20;52.30
53454;DHT22;49404;50.472;6.954;2022-09-13T09:42:03;26.30;51.60
53454;DHT22;49404;50.472;6.954;2022-09-13T09:44:31;26.30;52.10
53454;DHT22;49404;50.472;6.954;2022-09-13T09:47:00;26.40;52.00
53454;DHT22;49404;50.472;6.954;2022-09-13T09:52:35;26.70;51.80
53454;DHT22;49404;50.472;6.954;2022-09-13T09:55:26;26.70;52.10
53454;DHT22;49404;50.472;6.954;2022-09-13T10:00:14;27.00;50.90
53454;DHT22;49404;50.472;6.954;2022-09-13T10:02:43;27.30;48.60
53454;DHT22;49404;50.472;6.954;2022-09-13T10:05:09;27.20;49.30
53454;DHT22;49404;50.472;6.954;2022-09-13T10:07:37;27.30;50.60
53454;DHT22;49404;50.472;6.954;2022-09-13T10:12:50;27.30;49.20
53454;DHT22;49404;50.472;6.954;2022-09-13T10:15:18;27.30;49.40
53454;DHT22;49404;50.472;6.954;2022-09-13T10:17:59;27.20;49.40
53454;DHT22;49404;50.472;6.954;2022-09-13T10:20:25;27.20;48.50
53454;DHT22;49404;50.472;6.954;2022-09-13T10:23:10;27.20;48.60
53454;DHT22;49404;50.472;6.954;2022-09-13T10:25:36;27.30;49.00
53454;DHT22;49404;50.472;6.954;2022-09-13T10:28:09;27.30;49.60
53454;DHT22;49404;50.472;6.954;2022-09-13T10:30:37;27.30;49.50
53454;DHT22;49404;50.472;6.954;2022-09-13T10:33:13;27.30;49.10
53454;DHT22;49404;50.472;6.954;2022-09-13T10:35:47;27.30;49.60
53454;DHT22;49404;50.472;6.954;2022-09-13T10:38:16;27.20;49.70
53454;DHT22;49404;50.472;6.954;2022-09-13T10:40:48;27.20;50.00
53454;DHT22;49404;50.472;6.954;2022-09-13T10:43:14;27.20;49.30
53454;DHT22;49404;50.472;6.954;2022-09-13T10:45:44;27.30;49.10
53454;DHT22;49404;50.472;6.954;2022-09-13T10:48:13;27.30;49.60
53454;DHT22;49404;50.472;6.954;2022-09-13T10:50:40;27.30;49.90
53454;DHT22;49404;50.472;6.954;2022-09-13T10:53:26;27.20;48.70
53454;DHT22;49404;50.472;6.954;2022-09-13T10:55:54;27.20;49.30
53454;DHT22;49404;50.472;6.954;2022-09-13T10:58:19;27.20;49.50
53454;DHT22;49404;50.472;6.954;2022-09-13T11:00:59;27.20;49.60
53454;DHT22;49404;50.472;6.954;2022-09-13T11:11:08;27.30;49.70
53454;DHT22;49404;50.472;6.954;2022-09-13T11:24:18;27.60;49.50
53454;DHT22;49404;50.472;6.954;2022-09-13T11:32:02;28.10;47.90
53454;DHT22;49404;50.472;6.954;2022-09-13T11:54:43;28.70;47.60
53454;DHT22;49404;50.472;6.954;2022-09-13T11:57:15;33.80;50.70
53454;DHT22;49404;50.472;6.954;2022-09-13T11:59:44;28.80;47.90
53454;DHT22;49404;50.472;6.954;2022-09-13T12:02:17;28.90;46.70
53454;DHT22;49404;50.472;6.954;2022-09-13T12:04:46;28.90;47.20
53454;DHT22;49404;50.472;6.954;2022-09-13T12:07:18;29.00;47.20
53454;DHT22;49404;50.472;6.954;2022-09-13T12:09:52;29.10;47.40
53454;DHT22;49404;50.472;6.954;2022-09-13T12:12:20;29.20;46.10
53454;DHT22;49404;50.472;6.954;2022-09-13T12:14:58;29.20;46.60
53454;DHT22;49404;50.472;6.954;2022-09-13T12:18:08;29.00;46.00
53454;DHT22;49404;50.472;6.954;2022-09-13T12:20:33;29.00;46.90
53454;DHT22;49404;50.472;6.954;2022-09-13T12:23:00;28.80;46.90
53454;DHT22;49404;50.472;6.954;2022-09-13T12:25:41;28.70;47.30
53454;DHT22;49404;50.472;6.954;2022-09-13T12:28:12;28.70;47.80
53454;DHT22;49404;50.472;6.954;2022-09-13T12:30:54;28.50;47.90
53454;DHT22;49404;50.472;6.954;2022-09-13T12:33:20;28.30;47.70
53454;DHT22;49404;50.472;6.954;2022-09-13T12:38:24;28.20;47.90
53454;DHT22;49404;50.472;6.954;2022-09-13T12:41:01;28.20;48.60
53454;DHT22;49404;50.472;6.954;2022-09-13T13:03:35;27.90;49.10
53454;DHT22;49404;50.472;6.954;2022-09-13T13:08:51;27.70;49.30
53454;DHT22;49404;50.472;6.954;2022-09-13T13:11:18;27.60;49.90
53454;DHT22;49404;50.472;6.954;2022-09-13T13:13:52;27.60;49.50
53454;DHT22;49404;50.472;6.954;2022-09-13T13:18:48;27.40;49.90
53454;DHT22;49404;50.472;6.954;2022-09-13T13:21:25;27.40;50.30
53454;DHT22;49404;50.472;6.954;2022-09-13T13:31:41;27.30;51.00
53454;DHT22;49404;50.472;6.954;2022-09-13T13:39:04;27.20;50.70
53454;DHT22;49404;50.472;6.954;2022-09-13T13:46:47;27.20;51.00
53454;DHT22;49404;50.472;6.954;2022-09-13T13:57:26;27.20;50.90
53454;DHT22;49404;50.472;6.954;2022-09-13T13:59:55;27.10;51.40
53454;DHT22;49404;50.472;6.954;2022-09-13T14:02:28;27.10;51.20
53454;DHT22;49404;50.472;6.954;2022-09-13T14:07:29;27.10;50.80
53454;DHT22;49404;50.472;6.954;2022-09-13T14:15:39;27.00;51.20
53454;DHT22;49404;50.472;6.954;2022-09-13T14:18:29;27.00;51.20
53454;DHT22;49404;50.472;6.954;2022-09-13T14:21:02;27.00;51.20
53454;DHT22;49404;50.472;6.954;2022-09-13T14:23:28;27.10;51.20
53454;DHT22;49404;50.472;6.954;2022-09-13T14:25:58;27.10;51.10
53454;DHT22;49404;50.472;6.954;2022-09-13T14:28:24;27.10;51.10
53454;DHT22;49404;50.472;6.954;2022-09-13T14:30:56;27.10;51.60
53454;DHT22;49404;50.472;6.954;2022-09-13T14:33:26;27.20;50.70
53454;DHT22;49404;50.472;6.954;2022-09-13T14:35:56;27.20;51.30
53454;DHT22;49404;50.472;6.954;2022-09-13T14:38:24;27.30;50.70
53454;DHT22;49404;50.472;6.954;2022-09-13T14:40:57;27.30;51.20
53454;DHT22;49404;50.472;6.954;2022-09-13T14:43:24;27.20;50.50
53454;DHT22;49404;50.472;6.954;2022-09-13T14:46:13;27.30;51.00
53454;DHT22;49404;50.472;6.954;2022-09-13T14:48:53;27.30;50.80
53454;DHT22;49404;50.472;6.954;2022-09-13T14:51:21;27.30;51.60
53454;DHT22;49404;50.472;6.954;2022-09-13T14:53:50;27.20;51.50
53454;DHT22;49404;50.472;6.954;2022-09-13T14:56:26;27.10;52.10
53454;DHT22;49404;50.472;6.954;2022-09-13T14:58:53;27.00;52.30
53454;DHT22;49404;50.472;6.954;2022-09-13T15:01:21;27.00;52.90
53454;DHT22;49404;50.472;6.954;2022-09-13T15:03:50;26.90;52.60
53454;DHT22;49404;50.472;6.954;2022-09-13T15:06:23;26.80;52.90
53454;DHT22;49404;50.472;6.954;2022-09-13T15:08:49;26.80;53.50
53454;DHT22;49404;50.472;6.954;2022-09-13T15:11:32;26.70;53.60
53454;DHT22;49404;50.472;6.954;2022-09-13T15:14:01;26.70;53.50
53454;DHT22;49404;50.472;6.954;2022-09-13T15:16:28;26.70;53.80
53454;DHT22;49404;50.472;6.954;2022-09-13T15:21:38;26.60;54.40
53454;DHT22;49404;50.472;6.954;2022-09-13T15:24:03;26.60;54.00
53454;DHT22;49404;50.472;6.954;2022-09-13T15:26:29;26.60;54.10
53454;DHT22;49404;50.472;6.954;2022-09-13T15:28:57;26.50;55.20
53454;DHT22;49404;50.472;6.954;2022-09-13T15:31:29;26.40;54.60
53454;DHT22;49404;50.472;6.954;2022-09-13T15:36:39;26.30;54.50
53454;DHT22;49404;50.472;6.954;2022-09-13T15:41:34;26.10;54.80
53454;DHT22;49404;50.472;6.954;2022-09-13T15:44:00;26.10;55.00
53454;DHT22;49404;50.472;6.954;2022-09-13T15:46:28;26.10;55.70
53454;DHT22;49404;50.472;6.954;2022-09-13T15:48:54;26.10;55.60
53454;DHT22;49404;50.472;6.954;2022-09-13T15:51:23;26.00;56.50
53454;DHT22;49404;50.472;6.954;2022-09-13T15:53:49;25.90;57.50
53454;DHT22;49404;50.472;6.954;2022-09-13T15:56:16;25.90;58.20
53454;DHT22;49404;50.472;6.954;2022-09-13T15:58:42;25.70;58.10
53454;DHT22;49404;50.472;6.954;2022-09-13T16:01:08;25.70;59.10
53454;DHT22;49404;50.472;6.954;2022-09-13T16:03:35;25.60;59.00
53454;DHT22;49404;50.472;6.954;2022-09-13T16:06:00;25.50;59.30
53454;DHT22;49404;50.472;6.954;2022-09-13T16:08:26;25.50;59.40
53454;DHT22;49404;50.472;6.954;2022-09-13T16:10:51;25.50;60.70
53454;DHT22;49404;50.472;6.954;2022-09-13T16:13:17;25.40;60.20
53454;DHT22;49404;50.472;6.954;2022-09-13T16:15:44;25.40;61.00
53454;DHT22;49404;50.472;6.954;2022-09-13T16:18:14;25.40;61.20
53454;DHT22;49404;50.472;6.954;2022-09-13T16:20:42;25.30;62.10
53454;DHT22;49404;50.472;6.954;2022-09-13T16:23:07;25.30;63.20
53454;DHT22;49404;50.472;6.954;2022-09-13T16:25:36;25.20;64.00
53454;DHT22;49404;50.472;6.954;2022-09-13T16:28:03;25.10;64.90
53454;DHT22;49404;50.472;6.954;2022-09-13T16:30:29;25.10;65.50
53454;DHT22;49404;50.472;6.954;2022-09-13T16:32:55;24.80;66.50
53454;DHT22;49404;50.472;6.954;2022-09-13T16:35:21;24.70;67.20
53454;DHT22;49404;50.472;6.954;2022-09-13T16:37:46;24.60;67.90
53454;DHT22;49404;50.472;6.954;2022-09-13T16:40:16;24.50;69.30
53454;DHT22;49404;50.472;6.954;2022-09-13T16:42:44;24.30;69.50
53454;DHT22;49404;50.472;6.954;2022-09-13T16:45:10;24.30;70.00
53454;DHT22;49404;50.472;6.954;2022-09-13T16:47:36;24.10;70.80
53454;DHT22;49404;50.472;6.954;2022-09-13T16:50:02;24.10;70.90
53454;DHT22;49404;50.472;6.954;2022-09-13T16:52:28;24.00;71.50
53454;DHT22;49404;50.472;6.954;2022-09-13T16:54:53;24.00;71.90
53454;DHT22;49404;50.472;6.954;2022-09-13T16:57:20;23.80;72.10
53454;DHT22;49404;50.472;6.954;2022-09-13T16:59:48;23.80;72.60
53454;DHT22;49404;50.472;6.954;2022-09-13T17:02:13;23.70;72.70
53454;DHT22;49404;50.472;6.954;2022-09-13T17:04:41;23.70;73.20
53454;DHT22;49404;50.472;6.954;2022-09-13T17:07:07;23.60;73.40
53454;DHT22;49404;50.472;6.954;2022-09-13T17:09:33;23.50;73.00
53454;DHT22;49404;50.472;6.954;2022-09-13T17:11:58;23.30;74.00
53454;DHT22;49404;50.472;6.954;2022-09-13T17:14:27;23.20;74.60
53454;DHT22;49404;50.472;6.954;2022-09-13T17:16:54;23.20;74.70
53454;DHT22;49404;50.472;6.954;2022-09-13T17:19:21;23.10;74.60
53454;DHT22;49404;50.472;6.954;2022-09-13T17:21:47;23.10;74.90
53454;DHT22;49404;50.472;6.954;2022-09-13T17:24:13;23.00;75.40
53454;DHT22;49404;50.472;6.954;2022-09-13T17:26:39;23.00;76.20
53454;DHT22;49404;50.472;6.954;2022-09-13T17:29:04;22.90;76.40
53454;DHT22;49404;50.472;6.954;2022-09-13T17:31:30;22.90;76.80
53454;DHT22;49404;50.472;6.954;2022-09-13T17:33:55;22.80;76.80
53454;DHT22;49404;50.472;6.954;2022-09-13T17:36:21;22.80;77.30
53454;DHT22;49404;50.472;6.954;2022-09-13T17:38:52;22.70;77.50
53454;DHT22;49404;50.472;6.954;2022-09-13T17:41:18;22.70;77.80
53454;DHT22;49404;50.472;6.954;2022-09-13T17:43:46;22.70;77.00
53454;DHT22;49404;50.472;6.954;2022-09-13T17:46:19;22.70;78.20
53454;DHT22;49404;50.472;6.954;2022-09-13T17:48:48;22.70;78.20
53454;DHT22;49404;50.472;6.954;2022-09-13T17:51:15;22.50;78.50
53454;DHT22;49404;50.472;6.954;2022-09-13T17:53:43;22.60;79.10
53454;DHT22;49404;50.472;6.954;2022-09-13T17:56:10;22.60;79.40
53454;DHT22;49404;50.472;6.954;2022-09-13T17:58:36;22.50;80.20
53454;DHT22;49404;50.472;6.954;2022-09-13T18:01:05;22.50;80.40
53454;DHT22;49404;50.472;6.954;2022-09-13T18:03:31;22.60;79.20
53454;DHT22;49404;50.472;6.954;2022-09-13T18:05:57;22.60;80.30
53454;DHT22;49404;50.472;6.954;2022-09-13T18:08:23;22.60;81.00
53454;DHT22;49404;50.472;6.954;2022-09-13T18:10:49;22.70;80.30
53454;DHT22;49404;50.472;6.954;2022-09-13T18:13:15;22.60;79.90
53454;DHT22;49404;50.472;6.954;2022-09-13T18:15:40;22.70;80.20
53454;DHT22;49404;50.472;6.954;2022-09-13T18:18:06;22.60;80.70
53454;DHT22;49404;50.472;6.954;2022-09-13T18:20:31;22.70;80.40
53454;DHT22;49404;50.472;6.954;2022-09-13T18:22:57;22.70;80.20
53454;DHT22;49404;50.472;6.954;2022-09-13T18:25:22;22.80;80.90
53454;DHT22;49404;50.472;6.954;2022-09-13T18:27:48;22.80;80.60
53454;DHT22;49404;50.472;6.954;2022-09-13T18:30:14;22.80;80.80
53454;DHT22;49404;50.472;6.954;2022-09-13T18:32:42;22.70;80.80
53454;DHT22;49404;50.472;6.954;2022-09-13T18:35:07;22.70;81.40
53454;DHT22;49404;50.472;6.954;2022-09-13T18:37:33;22.60;80.90
53454;DHT22;49404;50.472;6.954;2022-09-13T18:39:59;22.60;81.40
53454;DHT22;49404;50.472;6.954;2022-09-13T18:42:24;22.60;81.20
53454;DHT22;49404;50.472;6.954;2022-09-13T18:44:50;22.60;81.70
53454;DHT22;49404;50.472;6.954;2022-09-13T18:47:16;22.60;81.90
53454;DHT22;49404;50.472;6.954;2022-09-13T18:49:42;22.50;81.90
53454;DHT22;49404;50.472;6.954;2022-09-13T18:52:10;22.40;82.40
53454;DHT22;49404;50.472;6.954;2022-09-13T18:54:36;22.40;82.90
53454;DHT22;49404;50.472;6.954;2022-09-13T18:57:02;22.30;82.70
53454;DHT22;49404;50.472;6.954;2022-09-13T18:59:29;22.30;83.30
53454;DHT22;49404;50.472;6.954;2022-09-13T19:01:56;22.30;83.00